EZY86LD EGMC-LFPG
Flight info
| Callsign | EZY86LD |
|---|---|
| Flight time | 0h 39m |
| Altitude | 21000 |
| Route | DET M604 LYD/N0414F250 UM189 WAFFU UM605 BIBAX |
| Aircraft | A320/M-SDE3FGHIRWY/LB1 |
Departure
| Time | 2026-04-24 10:02 |
|---|---|
| Airport | London Southend Airport (EGMC) |
Arrival
| Time | 2026-04-24 10:42 |
|---|---|
| Airport | Charles de Gaulle International Airport (LFPG) |
| Time | Latitude | Longitude | Altitude | Speed | Heading |
|---|---|---|---|---|---|
| 2026-04-24 09:34 | 51.56927 | 0.70272 | 50 ft | 0 kts | 93° |
| 2026-04-24 09:52 | 51.56927 | 0.70268 | 54 ft | 1 kts | 93° |
| 2026-04-24 09:53 | 51.56928 | 0.70246 | 54 ft | 2 kts | 96° |
| 2026-04-24 09:53 | 51.56933 | 0.70218 | 54 ft | 2 kts | 134° |
| 2026-04-24 09:53 | 51.56948 | 0.70202 | 54 ft | 2 kts | 169° |
| 2026-04-24 09:53 | 51.56966 | 0.70200 | 54 ft | 1 kts | 188° |
| 2026-04-24 09:54 | 51.56974 | 0.70201 | 54 ft | 0 kts | 189° |
| 2026-04-24 09:57 | 51.56973 | 0.70201 | 54 ft | 2 kts | 189° |
| 2026-04-24 09:57 | 51.56952 | 0.70196 | 54 ft | 3 kts | 189° |
| 2026-04-24 09:57 | 51.56930 | 0.70188 | 54 ft | 6 kts | 197° |
| 2026-04-24 09:57 | 51.56885 | 0.70118 | 52 ft | 10 kts | 235° |
| 2026-04-24 09:58 | 51.56879 | 0.69973 | 54 ft | 16 kts | 280° |
| 2026-04-24 09:58 | 51.56896 | 0.69810 | 54 ft | 14 kts | 279° |
| 2026-04-24 09:58 | 51.56910 | 0.69666 | 54 ft | 12 kts | 279° |
| 2026-04-24 09:58 | 51.56918 | 0.69528 | 54 ft | 14 kts | 262° |
| 2026-04-24 09:59 | 51.56900 | 0.69370 | 54 ft | 14 kts | 260° |
| 2026-04-24 09:59 | 51.56875 | 0.69237 | 52 ft | 12 kts | 234° |
| 2026-04-24 09:59 | 51.56835 | 0.69135 | 54 ft | 10 kts | 261° |
| 2026-04-24 09:59 | 51.56867 | 0.69065 | 54 ft | 6 kts | 323° |
| 2026-04-24 10:00 | 51.56891 | 0.69035 | 55 ft | 6 kts | 316° |
| 2026-04-24 10:00 | 51.56887 | 0.68983 | 58 ft | 5 kts | 240° |
| 2026-04-24 10:00 | 51.56831 | 0.68863 | 56 ft | 20 kts | 234° |
| 2026-04-24 10:00 | 51.56741 | 0.68663 | 53 ft | 22 kts | 234° |
| 2026-04-24 10:01 | 51.56650 | 0.68461 | 55 ft | 23 kts | 234° |
| 2026-04-24 10:01 | 51.56564 | 0.68272 | 55 ft | 14 kts | 228° |
| 2026-04-24 10:01 | 51.56515 | 0.68203 | 54 ft | 6 kts | 283° |
| 2026-04-24 10:01 | 51.56541 | 0.68216 | 54 ft | 1 kts | 53° |
| 2026-04-24 10:02 | 51.56545 | 0.68225 | 53 ft | 5 kts | 52° |
| 2026-04-24 10:02 | 51.56714 | 0.68600 | 53 ft | 86 kts | 54° |
| 2026-04-24 10:02 | 51.57218 | 0.69723 | 110 ft | 153 kts | 54° |
| 2026-04-24 10:02 | 51.57826 | 0.71066 | 1041 ft | 146 kts | 55° |
| 2026-04-24 10:03 | 51.58424 | 0.72382 | 1655 ft | 157 kts | 57° |
| 2026-04-24 10:03 | 51.59089 | 0.73892 | 2067 ft | 175 kts | 57° |
| 2026-04-24 10:03 | 51.59572 | 0.75789 | 2442 ft | 194 kts | 87° |
| 2026-04-24 10:03 | 51.59198 | 0.77926 | 2866 ft | 214 kts | 124° |
| 2026-04-24 10:04 | 51.57898 | 0.79410 | 3040 ft | 250 kts | 161° |
| 2026-04-24 10:04 | 51.56133 | 0.79403 | 3020 ft | 262 kts | 193° |
| 2026-04-24 10:04 | 51.54442 | 0.78283 | 3015 ft | 266 kts | 205° |
| 2026-04-24 10:04 | 51.52822 | 0.76819 | 3017 ft | 267 kts | 207° |
| 2026-04-24 10:05 | 51.51078 | 0.75779 | 3512 ft | 270 kts | 192° |
| 2026-04-24 10:05 | 51.49273 | 0.74987 | 4583 ft | 269 kts | 193° |
| 2026-04-24 10:05 | 51.47469 | 0.74168 | 5521 ft | 271 kts | 193° |
| 2026-04-24 10:05 | 51.45637 | 0.73329 | 6422 ft | 275 kts | 193° |
| 2026-04-24 10:06 | 51.43784 | 0.72481 | 7270 ft | 279 kts | 193° |
| 2026-04-24 10:06 | 51.39990 | 0.70770 | 8916 ft | 288 kts | 193° |
| 2026-04-24 10:06 | 51.38042 | 0.69903 | 9744 ft | 292 kts | 193° |
| 2026-04-24 10:07 | 51.36063 | 0.69023 | 10232 ft | 298 kts | 193° |
| 2026-04-24 10:07 | 51.34062 | 0.68133 | 10421 ft | 302 kts | 193° |
| 2026-04-24 10:07 | 51.31968 | 0.67203 | 10724 ft | 324 kts | 193° |
| 2026-04-24 10:07 | 51.29729 | 0.66216 | 11062 ft | 342 kts | 193° |
| 2026-04-24 10:08 | 51.27413 | 0.65187 | 11402 ft | 347 kts | 193° |
| 2026-04-24 10:08 | 51.25073 | 0.64144 | 12118 ft | 350 kts | 194° |
| 2026-04-24 10:08 | 51.22712 | 0.63094 | 12905 ft | 353 kts | 194° |
| 2026-04-24 10:08 | 51.20376 | 0.62058 | 13678 ft | 355 kts | 194° |
| 2026-04-24 10:09 | 51.17986 | 0.61001 | 14412 ft | 358 kts | 194° |
| 2026-04-24 10:09 | 51.15579 | 0.59939 | 15075 ft | 360 kts | 194° |
| 2026-04-24 10:09 | 51.13162 | 0.58875 | 15754 ft | 361 kts | 194° |
| 2026-04-24 10:09 | 51.10728 | 0.57806 | 16466 ft | 362 kts | 194° |
| 2026-04-24 10:10 | 51.08296 | 0.56742 | 17178 ft | 363 kts | 194° |
| 2026-04-24 10:10 | 51.05852 | 0.55668 | 17808 ft | 366 kts | 194° |
| 2026-04-24 10:10 | 51.03385 | 0.54580 | 18420 ft | 370 kts | 194° |
| 2026-04-24 10:10 | 51.00905 | 0.53490 | 19015 ft | 372 kts | 194° |
| 2026-04-24 10:11 | 50.98396 | 0.52392 | 19280 ft | 372 kts | 195° |
| 2026-04-24 10:11 | 50.95904 | 0.51304 | 19353 ft | 372 kts | 195° |
| 2026-04-24 10:11 | 50.93404 | 0.50209 | 19361 ft | 372 kts | 195° |
| 2026-04-24 10:11 | 50.90909 | 0.49119 | 19363 ft | 372 kts | 195° |
| 2026-04-24 10:12 | 50.88419 | 0.48033 | 19362 ft | 371 kts | 195° |
| 2026-04-24 10:12 | 50.85911 | 0.46941 | 19684 ft | 375 kts | 195° |
| 2026-04-24 10:12 | 50.83394 | 0.45846 | 20327 ft | 375 kts | 195° |
| 2026-04-24 10:12 | 50.80871 | 0.44751 | 20929 ft | 377 kts | 195° |
| 2026-04-24 10:13 | 50.78339 | 0.43654 | 21515 ft | 379 kts | 195° |
| 2026-04-24 10:13 | 50.75791 | 0.42552 | 22076 ft | 381 kts | 195° |
| 2026-04-24 10:13 | 50.73230 | 0.41440 | 22623 ft | 383 kts | 195° |
| 2026-04-24 10:13 | 50.70655 | 0.40323 | 23158 ft | 385 kts | 196° |
| 2026-04-24 10:14 | 50.68060 | 0.39200 | 23675 ft | 387 kts | 196° |
| 2026-04-24 10:14 | 50.65456 | 0.38077 | 24132 ft | 389 kts | 196° |
| 2026-04-24 10:14 | 50.62808 | 0.37136 | 24449 ft | 396 kts | 189° |
| 2026-04-24 10:14 | 50.60029 | 0.37050 | 24720 ft | 404 kts | 176° |
| 2026-04-24 10:15 | 50.57255 | 0.37962 | 25067 ft | 412 kts | 164° |
| 2026-04-24 10:15 | 50.54619 | 0.39822 | 25297 ft | 419 kts | 152° |
| 2026-04-24 10:15 | 50.52259 | 0.42527 | 25351 ft | 419 kts | 144° |
| 2026-04-24 10:15 | 50.50006 | 0.45405 | 25345 ft | 418 kts | 144° |
| 2026-04-24 10:16 | 50.47754 | 0.48276 | 25342 ft | 415 kts | 144° |
| 2026-04-24 10:16 | 50.45516 | 0.51119 | 25345 ft | 413 kts | 144° |
| 2026-04-24 10:16 | 50.43277 | 0.53948 | 25345 ft | 412 kts | 144° |
| 2026-04-24 10:16 | 50.41072 | 0.56727 | 25334 ft | 412 kts | 144° |
| 2026-04-24 10:17 | 50.38801 | 0.59586 | 25345 ft | 413 kts | 144° |
| 2026-04-24 10:17 | 50.36584 | 0.62369 | 25345 ft | 414 kts | 144° |
| 2026-04-24 10:17 | 50.34338 | 0.65187 | 25344 ft | 414 kts | 144° |
| 2026-04-24 10:17 | 50.32097 | 0.68002 | 25339 ft | 414 kts | 143° |
| 2026-04-24 10:18 | 50.29847 | 0.70830 | 25337 ft | 414 kts | 143° |
| 2026-04-24 10:18 | 50.27605 | 0.73644 | 25335 ft | 414 kts | 143° |
| 2026-04-24 10:18 | 50.25351 | 0.76461 | 25334 ft | 414 kts | 144° |
| 2026-04-24 10:18 | 50.23096 | 0.79267 | 25328 ft | 414 kts | 144° |
| 2026-04-24 10:19 | 50.20849 | 0.82061 | 25328 ft | 414 kts | 144° |
| 2026-04-24 10:19 | 50.18598 | 0.84859 | 25320 ft | 414 kts | 144° |
| 2026-04-24 10:19 | 50.16347 | 0.87660 | 25319 ft | 414 kts | 144° |
| 2026-04-24 10:19 | 50.14095 | 0.90462 | 25280 ft | 414 kts | 143° |
| 2026-04-24 10:20 | 50.11861 | 0.93240 | 25028 ft | 406 kts | 144° |
| 2026-04-24 10:20 | 50.09673 | 0.95955 | 24787 ft | 399 kts | 144° |
| 2026-04-24 10:20 | 50.07509 | 0.98633 | 24559 ft | 396 kts | 144° |
| 2026-04-24 10:20 | 50.05285 | 1.01090 | 24238 ft | 388 kts | 153° |
| 2026-04-24 10:21 | 50.02923 | 1.02961 | 23844 ft | 385 kts | 157° |
| 2026-04-24 10:21 | 50.00520 | 1.04756 | 23391 ft | 382 kts | 157° |
| 2026-04-24 10:21 | 49.98126 | 1.06549 | 22987 ft | 380 kts | 157° |
| 2026-04-24 10:21 | 49.95751 | 1.08332 | 22555 ft | 378 kts | 156° |
| 2026-04-24 10:22 | 49.93388 | 1.10112 | 22167 ft | 376 kts | 156° |
| 2026-04-24 10:22 | 49.91042 | 1.11883 | 21770 ft | 374 kts | 156° |
| 2026-04-24 10:22 | 49.88702 | 1.13645 | 21364 ft | 372 kts | 156° |
| 2026-04-24 10:22 | 49.87164 | 1.14799 | 21089 ft | 370 kts | 156° |
| 2026-04-24 10:23 | 49.84849 | 1.16532 | 20703 ft | 369 kts | 156° |
| 2026-04-24 10:23 | 49.82550 | 1.18249 | 20308 ft | 367 kts | 155° |
| 2026-04-24 10:23 | 49.80259 | 1.19957 | 19916 ft | 365 kts | 155° |
| 2026-04-24 10:23 | 49.77977 | 1.21655 | 19520 ft | 363 kts | 155° |
| 2026-04-24 10:24 | 49.75708 | 1.23345 | 19126 ft | 361 kts | 155° |
| 2026-04-24 10:24 | 49.73451 | 1.25020 | 18746 ft | 359 kts | 155° |
| 2026-04-24 10:24 | 49.71205 | 1.26691 | 18336 ft | 357 kts | 155° |
| 2026-04-24 10:24 | 49.68965 | 1.28359 | 17938 ft | 356 kts | 155° |
| 2026-04-24 10:25 | 49.66741 | 1.30010 | 17547 ft | 354 kts | 155° |
| 2026-04-24 10:25 | 49.64526 | 1.31647 | 17183 ft | 352 kts | 155° |
| 2026-04-24 10:25 | 49.62322 | 1.33280 | 16802 ft | 350 kts | 154° |
| 2026-04-24 10:25 | 49.60139 | 1.34899 | 16420 ft | 348 kts | 154° |
| 2026-04-24 10:26 | 49.57958 | 1.36512 | 16053 ft | 347 kts | 154° |
| 2026-04-24 10:26 | 49.55783 | 1.38120 | 15678 ft | 346 kts | 154° |
| 2026-04-24 10:26 | 49.53607 | 1.39729 | 15310 ft | 347 kts | 154° |
| 2026-04-24 10:26 | 49.51439 | 1.41329 | 14940 ft | 345 kts | 154° |
| 2026-04-24 10:27 | 49.49276 | 1.42921 | 14569 ft | 344 kts | 154° |
| 2026-04-24 10:27 | 49.47122 | 1.44502 | 14198 ft | 342 kts | 153° |
| 2026-04-24 10:27 | 49.45012 | 1.46048 | 13819 ft | 339 kts | 153° |
| 2026-04-24 10:27 | 49.42895 | 1.47603 | 13454 ft | 336 kts | 153° |
| 2026-04-24 10:28 | 49.40786 | 1.49156 | 13090 ft | 335 kts | 153° |
| 2026-04-24 10:28 | 49.38692 | 1.50690 | 12734 ft | 333 kts | 153° |
| 2026-04-24 10:28 | 49.36605 | 1.52215 | 12378 ft | 332 kts | 153° |
| 2026-04-24 10:28 | 49.34526 | 1.53743 | 12023 ft | 330 kts | 151° |
| 2026-04-24 10:29 | 49.32636 | 1.55690 | 11672 ft | 326 kts | 136° |
| 2026-04-24 10:29 | 49.31149 | 1.58276 | 11340 ft | 322 kts | 122° |
| 2026-04-24 10:29 | 49.30136 | 1.61322 | 11025 ft | 323 kts | 109° |
| 2026-04-24 10:29 | 49.29661 | 1.64650 | 10704 ft | 316 kts | 94° |
| 2026-04-24 10:30 | 49.29531 | 1.67940 | 10593 ft | 303 kts | 93° |
| 2026-04-24 10:30 | 49.29371 | 1.71101 | 10469 ft | 292 kts | 99° |
| 2026-04-24 10:30 | 49.28736 | 1.73991 | 10306 ft | 285 kts | 118° |
| 2026-04-24 10:30 | 49.27521 | 1.76365 | 10035 ft | 287 kts | 135° |
| 2026-04-24 10:31 | 49.25816 | 1.78010 | 9590 ft | 290 kts | 155° |
| 2026-04-24 10:31 | 49.23967 | 1.79231 | 9181 ft | 289 kts | 154° |
| 2026-04-24 10:31 | 49.22140 | 1.80462 | 8858 ft | 286 kts | 154° |
| 2026-04-24 10:31 | 49.20328 | 1.81686 | 8497 ft | 283 kts | 154° |
| 2026-04-24 10:32 | 49.18534 | 1.82892 | 8113 ft | 281 kts | 154° |
| 2026-04-24 10:32 | 49.16753 | 1.84078 | 7796 ft | 277 kts | 154° |
| 2026-04-24 10:32 | 49.14995 | 1.85234 | 7511 ft | 273 kts | 154° |
| 2026-04-24 10:32 | 49.13255 | 1.86366 | 7253 ft | 271 kts | 155° |
| 2026-04-24 10:33 | 49.11524 | 1.87484 | 7007 ft | 270 kts | 155° |
| 2026-04-24 10:33 | 49.09800 | 1.88596 | 6757 ft | 268 kts | 155° |
| 2026-04-24 10:33 | 49.08087 | 1.89707 | 6509 ft | 267 kts | 153° |
| 2026-04-24 10:33 | 49.06563 | 1.91243 | 6270 ft | 262 kts | 135° |
| 2026-04-24 10:34 | 49.05268 | 1.93193 | 6016 ft | 260 kts | 132° |
| 2026-04-24 10:34 | 49.04125 | 1.95309 | 5759 ft | 258 kts | 123° |
| 2026-04-24 10:34 | 49.03133 | 1.97534 | 5516 ft | 256 kts | 122° |
| 2026-04-24 10:34 | 49.02151 | 1.99786 | 5269 ft | 252 kts | 122° |
| 2026-04-24 10:35 | 49.01201 | 2.01967 | 5074 ft | 243 kts | 122° |
| 2026-04-24 10:35 | 49.00312 | 2.04108 | 4873 ft | 235 kts | 114° |
| 2026-04-24 10:35 | 48.99918 | 2.06421 | 4657 ft | 229 kts | 92° |
| 2026-04-24 10:35 | 49.00015 | 2.08855 | 4455 ft | 222 kts | 85° |
| 2026-04-24 10:36 | 49.00156 | 2.11162 | 4253 ft | 216 kts | 85° |
| 2026-04-24 10:36 | 49.00289 | 2.13414 | 4071 ft | 211 kts | 85° |
| 2026-04-24 10:36 | 49.00414 | 2.15588 | 3980 ft | 200 kts | 85° |
| 2026-04-24 10:36 | 49.00532 | 2.17654 | 3985 ft | 196 kts | 85° |
| 2026-04-24 10:37 | 49.00651 | 2.19723 | 3988 ft | 196 kts | 85° |
| 2026-04-24 10:37 | 49.00768 | 2.21794 | 3981 ft | 196 kts | 85° |
| 2026-04-24 10:37 | 49.00886 | 2.23868 | 3986 ft | 198 kts | 85° |
| 2026-04-24 10:37 | 49.01004 | 2.25947 | 3803 ft | 196 kts | 85° |
| 2026-04-24 10:38 | 49.01119 | 2.28001 | 3567 ft | 193 kts | 85° |
| 2026-04-24 10:38 | 49.01231 | 2.29984 | 3322 ft | 190 kts | 85° |
| 2026-04-24 10:38 | 49.01342 | 2.31979 | 3084 ft | 187 kts | 84° |
| 2026-04-24 10:38 | 49.01450 | 2.33900 | 2838 ft | 182 kts | 85° |
| 2026-04-24 10:39 | 49.01557 | 2.35826 | 2572 ft | 178 kts | 85° |
| 2026-04-24 10:39 | 49.01659 | 2.37660 | 2350 ft | 172 kts | 84° |
| 2026-04-24 10:39 | 49.01755 | 2.39396 | 2143 ft | 156 kts | 85° |
| 2026-04-24 10:39 | 49.01843 | 2.40987 | 1913 ft | 144 kts | 85° |
| 2026-04-24 10:40 | 49.01926 | 2.42464 | 1692 ft | 137 kts | 85° |
| 2026-04-24 10:40 | 49.02004 | 2.43888 | 1488 ft | 133 kts | 85° |
| 2026-04-24 10:40 | 49.02080 | 2.45288 | 1303 ft | 132 kts | 85° |
| 2026-04-24 10:40 | 49.02156 | 2.46693 | 1125 ft | 133 kts | 83° |
| 2026-04-24 10:41 | 49.02226 | 2.48106 | 954 ft | 135 kts | 84° |
| 2026-04-24 10:41 | 49.02310 | 2.49516 | 825 ft | 133 kts | 82° |
| 2026-04-24 10:41 | 49.02387 | 2.50910 | 586 ft | 132 kts | 84° |
| 2026-04-24 10:41 | 49.02464 | 2.52304 | 421 ft | 133 kts | 83° |
| 2026-04-24 10:42 | 49.02539 | 2.53636 | 362 ft | 107 kts | 85° |
| 2026-04-24 10:42 | 49.02572 | 2.54337 | 353 ft | 43 kts | 90° |
| 2026-04-24 10:42 | 49.02511 | 2.54757 | 356 ft | 39 kts | 105° |
| 2026-04-24 10:42 | 49.02447 | 2.55123 | 357 ft | 27 kts | 102° |
| 2026-04-24 10:43 | 49.02456 | 2.55392 | 354 ft | 25 kts | 85° |
| 2026-04-24 10:43 | 49.02471 | 2.55657 | 354 ft | 25 kts | 84° |
| 2026-04-24 10:43 | 49.02485 | 2.55916 | 354 ft | 21 kts | 84° |
| 2026-04-24 10:43 | 49.02489 | 2.56105 | 354 ft | 17 kts | 107° |
| 2026-04-24 10:44 | 49.02386 | 2.56166 | 354 ft | 17 kts | 177° |
| 2026-04-24 10:44 | 49.02284 | 2.56205 | 359 ft | 15 kts | 132° |
| 2026-04-24 10:44 | 49.02196 | 2.56305 | 357 ft | 17 kts | 173° |
| 2026-04-24 10:44 | 49.02083 | 2.56319 | 357 ft | 16 kts | 175° |
| 2026-04-24 10:45 | 49.02022 | 2.56422 | 354 ft | 15 kts | 89° |
| 2026-04-24 10:45 | 49.02032 | 2.56587 | 354 ft | 17 kts | 86° |
| 2026-04-24 10:45 | 49.02042 | 2.56792 | 359 ft | 21 kts | 84° |
| 2026-04-24 10:45 | 49.02056 | 2.57022 | 354 ft | 22 kts | 85° |
| 2026-04-24 10:46 | 49.02067 | 2.57263 | 357 ft | 23 kts | 85° |
| 2026-04-24 10:46 | 49.02080 | 2.57507 | 357 ft | 23 kts | 86° |
| 2026-04-24 10:46 | 49.02090 | 2.57752 | 354 ft | 23 kts | 91° |
| 2026-04-24 10:46 | 49.02027 | 2.57978 | 358 ft | 24 kts | 126° |
| 2026-04-24 10:47 | 49.01886 | 2.58106 | 361 ft | 25 kts | 164° |
| 2026-04-24 10:47 | 49.01712 | 2.58138 | 361 ft | 26 kts | 175° |
| 2026-04-24 10:47 | 49.01530 | 2.58159 | 354 ft | 27 kts | 176° |
| 2026-04-24 10:47 | 49.01341 | 2.58186 | 359 ft | 28 kts | 175° |
| 2026-04-24 10:48 | 49.01151 | 2.58211 | 357 ft | 28 kts | 175° |
| 2026-04-24 10:48 | 49.00987 | 2.58226 | 354 ft | 16 kts | 176° |
| 2026-04-24 10:48 | 49.00908 | 2.58147 | 354 ft | 15 kts | 260° |
| 2026-04-24 10:48 | 49.00901 | 2.57982 | 354 ft | 16 kts | 266° |
| 2026-04-24 10:49 | 49.00892 | 2.57809 | 361 ft | 17 kts | 264° |
| 2026-04-24 10:49 | 49.00882 | 2.57624 | 354 ft | 18 kts | 265° |
| 2026-04-24 10:49 | 49.00872 | 2.57429 | 354 ft | 19 kts | 264° |
| 2026-04-24 10:49 | 49.00858 | 2.57222 | 354 ft | 21 kts | 265° |
| 2026-04-24 10:50 | 49.00849 | 2.57024 | 357 ft | 7 kts | 265° |
| 2026-04-24 10:50 | 49.00846 | 2.56954 | 356 ft | 7 kts | 265° |
| 2026-04-24 10:50 | 49.00840 | 2.56837 | 354 ft | 16 kts | 265° |
| 2026-04-24 10:50 | 49.00831 | 2.56653 | 354 ft | 19 kts | 268° |
| 2026-04-24 10:51 | 49.00797 | 2.56470 | 356 ft | 17 kts | 211° |
| 2026-04-24 10:51 | 49.00683 | 2.56456 | 354 ft | 16 kts | 183° |
| 2026-04-24 10:51 | 49.00621 | 2.56350 | 357 ft | 14 kts | 262° |
| 2026-04-24 10:51 | 49.00613 | 2.56212 | 354 ft | 10 kts | 265° |
| 2026-04-24 10:52 | 49.00629 | 2.56166 | 359 ft | 5 kts | 0° |
| 2026-04-24 10:52 | 49.00668 | 2.56164 | 354 ft | 4 kts | 354° |
| 2026-04-24 10:52 | 49.00685 | 2.56162 | 354 ft | 0 kts | 354° |